createdAt,value
2022-08-23T00:01:26.405Z,92.37
2022-08-23T00:03:58.146Z,92.66
2022-08-23T00:06:25.013Z,92.28
2022-08-23T00:08:52.797Z,92.14
2022-08-23T00:11:33.525Z,93.15
2022-08-23T00:14:05.761Z,93.15
2022-08-23T00:16:32.354Z,93.72
2022-08-23T00:18:59.461Z,93.60
2022-08-23T00:21:26.124Z,94.25
2022-08-23T00:23:52.700Z,93.94
2022-08-23T00:26:20.785Z,94.09
2022-08-23T00:28:49.788Z,94.42
2022-08-23T00:31:18.835Z,94.78
2022-08-23T00:33:46.142Z,94.88
2022-08-23T00:36:12.720Z,95.44
2022-08-23T00:38:39.466Z,95.46
2022-08-23T00:41:06.322Z,95.76
2022-08-23T00:43:58.256Z,94.61
2022-08-23T00:47:07.191Z,94.61
2022-08-23T00:49:36.067Z,94.57
2022-08-23T00:52:08.928Z,94.28
2022-08-23T00:54:37.880Z,94.31
2022-08-23T00:57:10.808Z,94.85
2022-08-23T00:59:37.654Z,95.38
2022-08-23T01:02:05.463Z,96.07
2022-08-23T01:04:37.893Z,96.83
2022-08-23T01:07:09.190Z,97.71
2022-08-23T01:09:38.020Z,97.63
2022-08-23T01:12:16.065Z,96.87
2022-08-23T01:14:54.258Z,96.10
2022-08-23T01:17:30.082Z,95.10
2022-08-23T01:20:03.845Z,94.54
2022-08-23T01:22:41.425Z,94.38
2022-08-23T01:25:11.549Z,94.04
2022-08-23T01:27:39.613Z,94.40
2022-08-23T01:30:09.983Z,94.69
2022-08-23T01:32:44.457Z,95.40
2022-08-23T01:35:11.553Z,95.81
2022-08-23T01:37:38.617Z,95.90
2022-08-23T01:40:06.339Z,97.07
2022-08-23T01:42:32.975Z,98.05
2022-08-23T01:44:59.681Z,98.67
2022-08-23T01:47:26.235Z,98.21
2022-08-23T01:49:52.963Z,99.22
2022-08-23T01:52:19.651Z,99.47
2022-08-23T01:54:46.673Z,100.00
2022-08-23T01:57:13.508Z,100.00
2022-08-23T01:59:40.225Z,100.00
2022-08-23T02:02:06.829Z,99.47
2022-08-23T02:04:33.459Z,99.65
2022-08-23T02:07:00.041Z,99.06
2022-08-23T02:09:26.625Z,99.28
2022-08-23T02:11:54.893Z,100.00
2022-08-23T02:14:21.800Z,100.00
2022-08-23T02:17:03.905Z,100.00
2022-08-23T02:19:35.632Z,100.00
2022-08-23T02:22:03.570Z,100.00
2022-08-23T02:24:31.524Z,100.00
2022-08-23T02:27:02.271Z,100.00
2022-08-23T02:29:29.945Z,100.00
2022-08-23T02:31:58.876Z,100.00
2022-08-23T02:34:36.686Z,100.00
2022-08-23T02:37:03.669Z,100.00
2022-08-23T02:39:30.495Z,100.00
2022-08-23T02:41:57.786Z,100.00
2022-08-23T02:44:24.673Z,100.00
2022-08-23T02:46:51.441Z,100.00
2022-08-23T02:49:18.301Z,100.00
2022-08-23T02:51:45.245Z,100.00
2022-08-23T02:54:12.080Z,100.00
2022-08-23T02:56:39.051Z,100.00
2022-08-23T02:59:06.856Z,100.00
2022-08-23T03:01:38.127Z,100.00
2022-08-23T03:04:07.779Z,100.00
2022-08-23T03:06:34.448Z,100.00
2022-08-23T03:09:01.528Z,100.00
2022-08-23T03:11:28.518Z,100.00
2022-08-23T03:13:56.521Z,100.00
2022-08-23T03:16:24.796Z,100.00
2022-08-23T03:18:52.365Z,100.00
2022-08-23T03:21:20.646Z,100.00
2022-08-23T03:23:47.327Z,100.00
2022-08-23T03:26:14.819Z,100.00
2022-08-23T03:28:44.095Z,100.00
2022-08-23T03:31:12.482Z,100.00
2022-08-23T03:33:39.505Z,100.00
2022-08-23T03:36:08.031Z,100.00
2022-08-23T03:38:36.301Z,100.00
2022-08-23T03:41:03.077Z,100.00
2022-08-23T03:43:29.904Z,100.00
2022-08-23T03:45:57.160Z,100.00
2022-08-23T03:48:25.046Z,100.00
2022-08-23T03:50:54.580Z,100.00
2022-08-23T03:53:23.839Z,100.00
2022-08-23T03:55:52.133Z,100.00
2022-08-23T03:58:21.706Z,100.00
2022-08-23T04:00:48.908Z,100.00
2022-08-23T04:03:15.497Z,100.00
2022-08-23T04:05:42.272Z,100.00
2022-08-23T04:08:11.272Z,100.00
2022-08-23T04:10:39.407Z,100.00
2022-08-23T04:13:07.238Z,100.00
2022-08-23T04:15:33.827Z,100.00
2022-08-23T04:18:00.994Z,100.00
2022-08-23T04:20:28.925Z,100.00
2022-08-23T04:22:56.490Z,100.00
2022-08-23T04:25:34.802Z,100.00
2022-08-23T04:28:02.548Z,100.00
2022-08-23T04:30:29.863Z,100.00
2022-08-23T04:32:57.463Z,100.00
2022-08-23T04:35:25.679Z,100.00
2022-08-23T04:37:53.016Z,100.00
2022-08-23T04:40:38.006Z,100.00
2022-08-23T04:43:04.881Z,100.00
2022-08-23T04:45:32.607Z,100.00
2022-08-23T04:47:59.498Z,100.00
2022-08-23T04:50:26.202Z,100.00
2022-08-23T04:52:53.177Z,100.00
2022-08-23T04:55:20.317Z,100.00
2022-08-23T04:57:46.823Z,100.00
2022-08-23T05:00:14.747Z,100.00
2022-08-23T05:02:41.494Z,100.00
2022-08-23T05:05:11.323Z,100.00
2022-08-23T05:07:42.505Z,100.00
2022-08-23T05:10:13.055Z,100.00
2022-08-23T05:12:40.237Z,100.00
2022-08-23T05:15:09.311Z,100.00
2022-08-23T05:17:36.807Z,100.00
2022-08-23T05:20:05.158Z,99.39
2022-08-23T05:22:38.941Z,98.49
2022-08-23T05:25:06.242Z,96.99
2022-08-23T05:27:33.363Z,95.79
2022-08-23T05:29:59.940Z,95.61
2022-08-23T05:32:27.699Z,95.09
2022-08-23T05:34:57.068Z,93.33
2022-08-23T05:37:23.695Z,93.04
2022-08-23T05:39:50.361Z,91.64
2022-08-23T05:42:17.431Z,90.76
2022-08-23T05:44:44.422Z,89.62
2022-08-23T05:47:15.138Z,88.77
2022-08-23T05:49:42.728Z,86.89
2022-08-23T05:52:12.750Z,85.98
2022-08-23T05:54:39.672Z,84.28
2022-08-23T05:57:06.659Z,81.27
2022-08-23T05:59:33.448Z,80.59
2022-08-23T06:02:00.029Z,79.05
2022-08-23T06:04:26.577Z,77.96
2022-08-23T06:06:54.014Z,76.18
2022-08-23T06:09:20.723Z,74.74
2022-08-23T06:11:48.575Z,75.15
2022-08-23T06:14:16.206Z,74.26
2022-08-23T06:16:46.486Z,73.31
2022-08-23T06:19:14.472Z,71.68
2022-08-23T06:21:42.072Z,71.88
2022-08-23T06:24:08.766Z,70.89
2022-08-23T06:26:41.452Z,71.18
2022-08-23T06:29:14.392Z,71.08
2022-08-23T06:31:47.061Z,69.96
2022-08-23T06:34:26.749Z,68.80
2022-08-23T06:36:59.132Z,68.60
2022-08-23T06:39:29.883Z,69.13
2022-08-23T06:42:34.899Z,69.13
2022-08-23T06:44:58.845Z,68.81
2022-08-23T06:47:25.392Z,68.98
2022-08-23T06:49:57.817Z,68.17
2022-08-23T06:52:27.676Z,66.32
2022-08-23T06:54:54.630Z,66.02
2022-08-23T06:57:21.254Z,65.31
2022-08-23T06:59:50.165Z,64.56
2022-08-23T07:02:17.207Z,64.97
2022-08-23T07:04:43.994Z,64.41
2022-08-23T07:07:12.188Z,63.17
2022-08-23T07:09:39.967Z,62.22
2022-08-23T07:12:06.746Z,62.16
2022-08-23T07:14:33.404Z,61.71
2022-08-23T07:17:01.530Z,62.50
2022-08-23T07:19:30.722Z,61.96
2022-08-23T07:21:58.461Z,60.77
2022-08-23T07:24:29.336Z,59.98
2022-08-23T07:26:59.292Z,60.57
2022-08-23T07:29:25.873Z,61.39
2022-08-23T07:31:55.953Z,61.92
2022-08-23T07:34:23.680Z,61.26
2022-08-23T07:36:51.686Z,60.30
2022-08-23T07:39:19.924Z,60.62
2022-08-23T07:41:47.087Z,59.80
2022-08-23T07:44:18.168Z,58.98
2022-08-23T07:46:46.703Z,57.92
2022-08-23T07:49:14.279Z,57.68
2022-08-23T07:51:45.546Z,57.40
2022-08-23T07:54:13.083Z,58.41
2022-08-23T07:56:40.207Z,58.55
2022-08-23T07:59:08.158Z,58.23
2022-08-23T08:01:35.265Z,58.08
2022-08-23T08:04:04.327Z,58.42
2022-08-23T08:06:36.526Z,58.48
2022-08-23T08:09:06.114Z,57.74
2022-08-23T08:11:35.442Z,58.23
2022-08-23T08:14:07.711Z,58.04
2022-08-23T08:16:44.079Z,57.98
2022-08-23T08:19:12.577Z,58.00
2022-08-23T08:21:42.465Z,58.78
2022-08-23T08:24:12.864Z,58.16
2022-08-23T08:26:40.857Z,57.66
2022-08-23T08:29:11.343Z,56.70
2022-08-23T08:31:39.595Z,55.63
2022-08-23T08:34:07.941Z,56.38
2022-08-23T08:36:41.414Z,56.28
2022-08-23T08:39:12.298Z,56.34
2022-08-23T08:41:57.456Z,56.63
2022-08-23T08:44:37.664Z,56.42
2022-08-23T08:47:25.800Z,54.76
2022-08-23T08:50:15.898Z,55.47
2022-08-23T08:52:48.115Z,54.91
2022-08-23T08:55:24.170Z,54.41
2022-08-23T08:57:52.261Z,53.45
2022-08-23T09:00:23.445Z,54.06
2022-08-23T09:02:51.153Z,53.79
2022-08-23T09:05:31.897Z,54.42
2022-08-23T09:08:34.451Z,53.97
2022-08-23T09:11:47.220Z,53.89
2022-08-23T09:14:27.350Z,53.21
2022-08-23T09:17:07.464Z,53.45
2022-08-23T09:19:38.160Z,53.89
2022-08-23T09:22:11.146Z,53.30
2022-08-23T09:24:37.708Z,53.39
2022-08-23T09:27:04.472Z,53.24
2022-08-23T09:29:33.182Z,54.21
2022-08-23T09:32:06.662Z,55.04
2022-08-23T09:34:35.990Z,54.71
2022-08-23T09:37:09.822Z,56.28
2022-08-23T09:39:39.327Z,57.35
2022-08-23T09:42:26.963Z,54.27
2022-08-23T09:44:54.506Z,54.08
2022-08-23T09:47:30.342Z,53.00
2022-08-23T09:50:06.994Z,53.04
2022-08-23T09:52:37.774Z,51.91
2022-08-23T09:55:35.400Z,51.28
2022-08-23T09:58:15.921Z,53.53
2022-08-23T10:00:43.149Z,52.34
2022-08-23T10:03:27.056Z,52.48
2022-08-23T10:05:56.493Z,51.09
2022-08-23T10:08:32.976Z,50.70
2022-08-23T10:11:12.270Z,50.66
2022-08-23T10:13:43.037Z,49.76
2022-08-23T10:16:26.277Z,49.70
2022-08-23T10:19:18.194Z,50.87
2022-08-23T10:22:01.255Z,52.26
2022-08-23T10:25:02.549Z,52.34
2022-08-23T10:28:19.323Z,51.81
2022-08-23T10:31:06.306Z,51.77
2022-08-23T10:34:00.420Z,49.93
2022-08-23T10:36:33.847Z,49.39
2022-08-23T10:39:18.895Z,48.60
2022-08-23T10:42:19.978Z,48.62
2022-08-23T10:44:53.987Z,49.67
2022-08-23T10:47:37.294Z,49.01
2022-08-23T10:50:08.025Z,49.22
2022-08-23T10:52:45.298Z,48.80
2022-08-23T10:55:35.198Z,48.71
2022-08-23T10:58:05.493Z,49.18
2022-08-23T11:00:34.469Z,48.81
2022-08-23T11:03:32.353Z,49.64
2022-08-23T11:06:32.018Z,48.97
2022-08-23T11:09:28.149Z,48.90
2022-08-23T11:12:14.151Z,47.94
2022-08-23T11:14:47.016Z,48.51
2022-08-23T11:17:35.437Z,47.79
2022-08-23T11:20:08.728Z,48.01
2022-08-23T11:22:57.894Z,47.95
2022-08-23T11:25:24.340Z,48.12
2022-08-23T11:27:50.946Z,46.83
2022-08-23T11:30:32.885Z,47.35
2022-08-23T11:33:21.447Z,46.92
2022-08-23T11:35:50.187Z,47.73
2022-08-23T11:38:38.350Z,49.19
2022-08-23T11:41:19.941Z,48.32
2022-08-23T11:43:57.001Z,47.95
2022-08-23T11:46:24.229Z,47.56
2022-08-23T11:49:12.218Z,47.35
2022-08-23T11:51:44.807Z,48.52
2022-08-23T11:54:29.823Z,47.38
2022-08-23T11:57:28.483Z,46.82
2022-08-23T12:00:27.718Z,47.02
2022-08-23T12:03:05.817Z,46.09
2022-08-23T12:05:38.696Z,46.69
2022-08-23T12:08:05.903Z,46.34
2022-08-23T12:10:41.603Z,46.54
2022-08-23T12:13:19.989Z,45.19
2022-08-23T12:16:16.528Z,45.43
2022-08-23T12:18:49.827Z,44.39
2022-08-23T12:21:22.605Z,45.92
2022-08-23T12:23:52.764Z,46.53
2022-08-23T12:26:44.209Z,47.99
2022-08-23T12:29:33.701Z,48.83
2022-08-23T12:32:12.100Z,47.27
2022-08-23T12:34:55.014Z,46.26
2022-08-23T12:37:39.918Z,46.87
2022-08-23T12:40:15.696Z,46.45
2022-08-23T12:42:42.828Z,45.87
2022-08-23T12:45:17.353Z,46.52
2022-08-23T12:47:56.671Z,47.74
2022-08-23T12:50:55.115Z,48.13
2022-08-23T12:53:32.293Z,48.78
2022-08-23T12:56:08.850Z,47.82
2022-08-23T12:58:39.800Z,47.97
2022-08-23T13:01:17.406Z,48.20
2022-08-23T13:03:48.626Z,48.31
2022-08-23T13:06:21.813Z,48.47
2022-08-23T13:08:57.686Z,48.35
2022-08-23T13:11:27.568Z,49.35
2022-08-23T13:13:55.396Z,48.44
2022-08-23T13:16:36.079Z,48.88
2022-08-23T13:19:30.874Z,46.66
2022-08-23T13:22:19.012Z,46.60
2022-08-23T13:25:28.757Z,45.57
2022-08-23T13:28:00.797Z,47.50
2022-08-23T13:30:33.252Z,47.39
2022-08-23T13:33:07.832Z,47.36
2022-08-23T13:35:36.631Z,47.98
2022-08-23T13:38:21.324Z,47.89
2022-08-23T13:40:59.457Z,48.63
2022-08-23T13:43:27.858Z,47.98
2022-08-23T13:45:57.474Z,49.43
2022-08-23T13:48:34.646Z,49.42
2022-08-23T13:51:30.710Z,49.56
2022-08-23T13:53:59.675Z,49.46
2022-08-23T13:56:28.456Z,50.43
2022-08-23T13:59:18.065Z,49.96
2022-08-23T14:01:45.431Z,50.58
2022-08-23T14:04:12.036Z,51.40
2022-08-23T14:06:38.713Z,50.42
2022-08-23T14:09:06.749Z,50.49
2022-08-23T14:11:34.909Z,51.80
2022-08-23T14:14:01.988Z,52.04
2022-08-23T14:16:34.791Z,50.93
2022-08-23T14:20:31.495Z,51.93
2022-08-23T14:21:51.068Z,52.54
2022-08-23T14:24:20.154Z,52.09
2022-08-23T14:26:50.217Z,52.79
2022-08-23T14:29:21.569Z,53.25
2022-08-23T14:31:50.430Z,52.69
2022-08-23T14:34:17.086Z,52.82
2022-08-23T14:37:21.637Z,52.61
2022-08-23T14:39:30.813Z,53.20
2022-08-23T14:41:57.844Z,53.50
2022-08-23T14:44:25.670Z,53.51
2022-08-23T14:46:54.624Z,54.11
2022-08-23T14:49:22.063Z,54.03
2022-08-23T14:51:50.779Z,53.41
2022-08-23T14:54:21.572Z,54.01
2022-08-23T14:56:48.730Z,54.38
2022-08-23T14:59:15.841Z,53.78
2022-08-23T15:01:42.922Z,54.32
2022-08-23T15:04:10.077Z,54.73
2022-08-23T15:06:36.991Z,54.73
2022-08-23T15:09:04.305Z,54.09
2022-08-23T15:14:17.808Z,54.22
2022-08-23T15:16:44.615Z,54.24
2022-08-23T15:19:11.223Z,54.16
2022-08-23T15:21:37.777Z,55.23
2022-08-23T15:24:04.766Z,54.27
2022-08-23T15:26:32.108Z,55.62
2022-08-23T15:29:00.276Z,54.84
2022-08-23T15:31:27.848Z,54.97
2022-08-23T15:33:54.502Z,54.73
2022-08-23T15:36:21.147Z,54.36
2022-08-23T15:38:49.136Z,54.36
2022-08-23T15:41:19.811Z,53.41
2022-08-23T15:43:46.992Z,54.53
2022-08-23T15:46:21.754Z,55.23
2022-08-23T15:48:54.696Z,54.97
2022-08-23T15:51:21.727Z,55.09
2022-08-23T15:53:48.514Z,54.83
2022-08-23T15:56:21.035Z,55.48
2022-08-23T15:58:48.499Z,55.46
2022-08-23T16:01:15.197Z,55.25
2022-08-23T16:03:43.474Z,55.42
2022-08-23T16:06:12.821Z,56.41
2022-08-23T16:08:42.537Z,56.74
2022-08-23T16:11:12.883Z,57.63
2022-08-23T16:13:45.143Z,56.91
2022-08-23T16:16:23.336Z,56.80
2022-08-23T16:18:51.792Z,57.35
2022-08-23T16:21:18.402Z,57.63
2022-08-23T16:23:45.278Z,57.58
2022-08-23T16:26:22.353Z,57.86
2022-08-23T16:28:57.068Z,56.94
2022-08-23T16:31:39.005Z,57.56
2022-08-23T16:34:09.400Z,57.87
2022-08-23T16:36:36.325Z,58.14
2022-08-23T16:39:03.896Z,58.38
2022-08-23T16:41:30.415Z,58.53
2022-08-23T16:43:56.994Z,58.73
2022-08-23T16:46:24.665Z,57.95
2022-08-23T16:48:51.444Z,58.52
2022-08-23T16:51:18.318Z,58.34
2022-08-23T16:53:44.934Z,58.41
2022-08-23T16:56:29.857Z,57.91
2022-08-23T16:58:56.991Z,58.42
2022-08-23T17:01:23.784Z,58.64
2022-08-23T17:03:50.753Z,59.11
2022-08-23T17:06:18.353Z,58.80
2022-08-23T17:08:45.291Z,58.77
2022-08-23T17:11:15.765Z,59.27
2022-08-23T17:13:42.455Z,59.31
2022-08-23T17:16:10.843Z,59.76
2022-08-23T17:18:38.570Z,60.53
2022-08-23T17:21:05.911Z,60.69
2022-08-23T17:23:33.174Z,60.36
2022-08-23T17:26:06.107Z,60.62
2022-08-23T17:28:32.961Z,61.03
2022-08-23T17:30:59.597Z,60.88
2022-08-23T17:33:26.297Z,60.83
2022-08-23T17:35:53.111Z,61.42
2022-08-23T17:38:20.972Z,61.59
2022-08-23T17:40:48.245Z,61.52
2022-08-23T17:43:14.874Z,61.71
2022-08-23T17:45:45.609Z,61.92
2022-08-23T17:48:13.918Z,62.46
2022-08-23T17:50:43.587Z,62.01
2022-08-23T17:53:11.523Z,62.27
2022-08-23T17:55:39.462Z,62.18
2022-08-23T17:58:10.000Z,63.37
2022-08-23T18:00:39.061Z,63.19
2022-08-23T18:03:05.939Z,63.37
2022-08-23T18:05:33.946Z,63.80
2022-08-23T18:08:00.811Z,62.94
2022-08-23T18:10:27.557Z,63.95
2022-08-23T18:12:54.141Z,64.82
2022-08-23T18:15:20.739Z,65.05
2022-08-23T18:17:47.373Z,66.00
2022-08-23T18:20:14.159Z,66.28
2022-08-23T18:22:40.920Z,66.99
2022-08-23T18:25:10.074Z,67.76
2022-08-23T18:27:55.632Z,68.10
2022-08-23T18:30:22.228Z,67.85
2022-08-23T18:32:48.813Z,68.28
2022-08-23T18:35:15.614Z,68.71
2022-08-23T18:37:42.430Z,68.96
2022-08-23T18:40:10.481Z,69.35
2022-08-23T18:42:37.911Z,69.45
2022-08-23T18:45:06.082Z,70.40
2022-08-23T18:47:32.994Z,70.42
2022-08-23T18:49:59.571Z,70.94
2022-08-23T18:52:27.637Z,71.01
2022-08-23T18:54:57.731Z,71.81
2022-08-23T18:57:24.486Z,71.53
2022-08-23T18:59:51.512Z,71.44
2022-08-23T19:02:18.408Z,71.54
2022-08-23T19:04:46.265Z,72.68
2022-08-23T19:07:12.998Z,72.56
2022-08-23T19:09:39.595Z,72.75
2022-08-23T19:12:06.553Z,73.51
2022-08-23T19:14:35.712Z,74.37
2022-08-23T19:17:08.239Z,74.15
2022-08-23T19:19:35.898Z,75.20
2022-08-23T19:22:03.806Z,75.17
2022-08-23T19:24:30.801Z,75.34
2022-08-23T19:26:57.449Z,75.06
2022-08-23T19:29:24.128Z,75.77
2022-08-23T19:31:50.750Z,75.79
2022-08-23T19:34:19.728Z,75.44
2022-08-23T19:36:56.821Z,75.59
2022-08-23T19:39:27.833Z,75.85
2022-08-23T19:41:54.511Z,75.74
2022-08-23T19:44:21.420Z,76.21
2022-08-23T19:46:48.470Z,76.06
2022-08-23T19:49:15.744Z,76.23
2022-08-23T19:51:43.814Z,76.78
2022-08-23T19:54:12.898Z,77.29
2022-08-23T19:56:47.073Z,76.60
2022-08-23T19:59:19.611Z,77.04
2022-08-23T20:01:47.991Z,77.77
2022-08-23T20:04:16.286Z,77.52
2022-08-23T20:06:43.355Z,77.61
2022-08-23T20:09:10.126Z,77.95
2022-08-23T20:11:37.293Z,78.64
2022-08-23T20:14:05.435Z,78.62
2022-08-23T20:16:32.965Z,78.74
2022-08-23T20:19:00.288Z,78.88
2022-08-23T20:21:27.719Z,79.38
2022-08-23T20:24:04.424Z,79.45
2022-08-23T20:26:34.007Z,79.34
2022-08-23T20:29:05.567Z,79.63
2022-08-23T20:31:36.713Z,80.03
2022-08-23T20:34:05.895Z,79.75
2022-08-23T20:36:33.503Z,79.91
2022-08-23T20:39:01.566Z,80.62
2022-08-23T20:41:31.260Z,81.04
2022-08-23T20:43:58.931Z,80.93
2022-08-23T20:46:26.708Z,80.76
2022-08-23T20:48:54.044Z,80.42
2022-08-23T20:51:21.297Z,80.22
2022-08-23T20:53:48.064Z,80.11
2022-08-23T20:56:15.226Z,80.83
2022-08-23T20:58:42.414Z,81.56
2022-08-23T21:01:11.100Z,82.39
2022-08-23T21:03:39.006Z,82.95
2022-08-23T21:06:09.292Z,83.03
2022-08-23T21:08:42.528Z,83.84
2022-08-23T21:11:10.642Z,84.37
2022-08-23T21:13:41.406Z,85.05
2022-08-23T21:16:08.243Z,85.87
2022-08-23T21:18:34.965Z,85.39
2022-08-23T21:21:01.587Z,85.55
2022-08-23T21:23:28.189Z,86.00
2022-08-23T21:25:56.527Z,86.63
2022-08-23T21:28:24.314Z,86.08
2022-08-23T21:30:51.034Z,85.31
2022-08-23T21:33:18.225Z,85.27
2022-08-23T21:35:44.942Z,85.30
2022-08-23T21:38:11.664Z,85.85
2022-08-23T21:40:38.516Z,86.42
2022-08-23T21:43:05.374Z,85.96
2022-08-23T21:45:32.084Z,86.29
2022-08-23T21:47:58.820Z,86.34
2022-08-23T21:50:28.681Z,87.27
2022-08-23T21:53:03.833Z,87.07
2022-08-23T21:55:36.187Z,86.67
2022-08-23T21:58:04.119Z,87.07
2022-08-23T22:00:30.864Z,86.94
2022-08-23T22:02:57.592Z,87.49
2022-08-23T22:05:24.504Z,88.18
2022-08-23T22:07:52.020Z,88.22
2022-08-23T22:10:18.965Z,87.82
2022-08-23T22:12:45.530Z,88.27
2022-08-23T22:15:14.806Z,88.61
2022-08-23T22:17:41.366Z,88.63
2022-08-23T22:20:09.677Z,89.73
2022-08-23T22:22:37.278Z,89.56
2022-08-23T22:25:04.593Z,89.71
2022-08-23T22:27:32.864Z,89.22
2022-08-23T22:29:59.603Z,89.18
2022-08-23T22:32:26.780Z,89.68
2022-08-23T22:34:53.550Z,89.46
2022-08-23T22:37:20.248Z,89.82
2022-08-23T22:39:46.991Z,89.34
2022-08-23T22:42:13.947Z,89.20
2022-08-23T22:44:40.794Z,89.64
2022-08-23T22:47:07.640Z,89.82
2022-08-23T22:49:34.564Z,90.28
2022-08-23T22:52:01.152Z,89.45
2022-08-23T22:54:27.831Z,89.69
2022-08-23T22:56:54.730Z,89.71
2022-08-23T22:59:25.858Z,90.03
2022-08-23T23:01:58.205Z,90.32
2022-08-23T23:04:26.737Z,90.72
2022-08-23T23:06:54.754Z,91.15
2022-08-23T23:09:21.508Z,91.26
2022-08-23T23:11:48.775Z,91.53
2022-08-23T23:14:17.484Z,91.98
2022-08-23T23:16:44.981Z,92.31
2022-08-23T23:19:30.607Z,92.02
2022-08-23T23:21:58.453Z,92.04
2022-08-23T23:24:31.250Z,91.94
2022-08-23T23:26:59.228Z,93.25
2022-08-23T23:29:27.518Z,92.85
2022-08-23T23:31:55.649Z,93.49
2022-08-23T23:34:23.534Z,93.63
2022-08-23T23:36:50.128Z,93.59
2022-08-23T23:39:16.936Z,93.23
2022-08-23T23:41:43.636Z,94.10
2022-08-23T23:44:10.192Z,94.12
2022-08-23T23:46:36.959Z,94.48
2022-08-23T23:49:04.256Z,95.46
2022-08-23T23:51:31.609Z,95.67
2022-08-23T23:54:00.976Z,95.83
2022-08-23T23:56:29.376Z,95.82
2022-08-23T23:58:56.859Z,95.46
